Accueil
METAR-TAF:

METAR-TAF

Aéroports :

Aéroport d'Inverness

Inverness, Écosse

latitude: 57-32N, longitude: 004-03W, altitude: 9 m

Observation

Le bulletin a été fait il y a 28 minutes, à 19:50 UTC
Vent 7 kt de sud/sud-est
Température 3°C
Humidité 87%
Pression 1001 hPa
Visibilité 10 km ou plus
pas de nuages en-dessous de 1500 mètres et pas de cumulonimbus.

METAR: EGPE 161950Z 15007KT CAVOK 03/01 Q1001

Heure: 20:18 (20:18 UTC)

Prévision

Le bulletin a été fait il y a 3 heures et 14 minutes, à 17:04 UTC
Prévision valable du 16 à 18 UTC au 17 à 03 UTC
Vent 4 kt de direction variable
Visibilité 10 km ou plus
Quelques nuages à une hauteur de 2500 ft
Probabilité 30% :
Temporairement
du 16 à 23 UTC au 17 à 03 UTC
Visibilité: 0400 m
brouillard givrant

TAF: EGPE 161704Z 1618/1703 VRB04KT 9999 FEW025 PROB30 TEMPO 1623/1703 0400 FZFG

Observations et prévisions météorologiques de plus de 4000 aéroports (messages METAR et TAF).

Les stations disponibles sont représentées par des disques jaunes et rouges sur la carte.

Passer la souris dessus pour voir le nom de la station.

Cliquer dessus pour voir les observations et prévisions météorologiques.

Pour changer de carte: cliquez sur les boutons verts avec une croix noire pour zoomer, sur le bouton vert avec un tiret pour effectuer un zoom arrière, ou sur les flèches vertes pour les cartes adjacentes.


METAR-TAF: